createdAt,value
2019-03-25T00:01:02.801Z,82.57
2019-03-25T00:03:32.336Z,77.63
2019-03-25T00:06:01.851Z,71.73
2019-03-25T00:08:31.400Z,71.83
2019-03-25T00:11:00.949Z,75.27
2019-03-25T00:13:30.481Z,73.77
2019-03-25T00:15:59.946Z,72.63
2019-03-25T00:18:29.408Z,74.53
2019-03-25T00:20:58.797Z,79.53
2019-03-25T00:23:28.335Z,69.87
2019-03-25T00:25:58.354Z,71.73
2019-03-25T00:28:27.802Z,78.27
2019-03-25T00:30:57.201Z,71.67
2019-03-25T00:33:26.989Z,71.97
2019-03-25T00:35:56.458Z,77.60
2019-03-25T00:38:25.949Z,73.23
2019-03-25T00:40:55.446Z,76.87
2019-03-25T00:43:24.904Z,72.23
2019-03-25T00:45:54.373Z,71.63
2019-03-25T00:48:23.829Z,73.10
2019-03-25T00:50:53.292Z,79.17
2019-03-25T00:53:22.749Z,75.70
2019-03-25T00:55:52.746Z,80.20
2019-03-25T00:58:22.501Z,78.07
2019-03-25T01:00:52.046Z,74.73
2019-03-25T01:03:21.497Z,72.40
2019-03-25T01:05:50.990Z,73.47
2019-03-25T01:08:20.446Z,77.70
2019-03-25T01:10:49.916Z,84.47
2019-03-25T01:13:19.482Z,78.93
2019-03-25T01:15:49.217Z,69.43
2019-03-25T01:18:18.689Z,76.03
2019-03-25T01:20:48.225Z,77.20
2019-03-25T01:23:17.761Z,80.03
2019-03-25T01:25:47.162Z,77.23
2019-03-25T01:28:16.857Z,80.03
2019-03-25T01:30:46.619Z,69.30
2019-03-25T01:33:16.404Z,74.70
2019-03-25T01:35:45.807Z,75.83
2019-03-25T01:38:15.553Z,74.40
2019-03-25T01:40:45.030Z,75.73
2019-03-25T01:43:14.721Z,77.90
2019-03-25T01:45:44.257Z,74.80
2019-03-25T01:48:13.743Z,72.27
2019-03-25T01:50:43.306Z,79.47
2019-03-25T01:53:12.877Z,73.67
2019-03-25T01:55:42.734Z,67.47
2019-03-25T01:58:12.441Z,73.40
2019-03-25T02:00:42.270Z,76.90
2019-03-25T02:03:11.805Z,72.10
2019-03-25T02:05:41.694Z,72.13
2019-03-25T02:08:11.589Z,72.47
2019-03-25T02:10:40.993Z,75.33
2019-03-25T02:13:10.526Z,76.60
2019-03-25T02:15:40.069Z,79.97
2019-03-25T02:18:09.528Z,79.63
2019-03-25T02:20:38.918Z,71.30
2019-03-25T02:23:08.621Z,72.97
2019-03-25T02:25:38.451Z,79.07
2019-03-25T02:28:08.002Z,71.93
2019-03-25T02:30:37.543Z,77.00
2019-03-25T02:33:06.929Z,89.07
2019-03-25T02:35:36.393Z,77.17
2019-03-25T02:38:05.846Z,75.90
2019-03-25T02:40:35.303Z,78.70
2019-03-25T02:43:05.933Z,72.87
2019-03-25T02:45:35.389Z,84.37
2019-03-25T02:48:04.929Z,80.17
2019-03-25T02:50:34.547Z,77.23
2019-03-25T02:53:04.089Z,79.03
2019-03-25T02:55:41.427Z,77.07
2019-03-25T02:58:05.292Z,79.43
2019-03-25T03:00:36.821Z,86.93
2019-03-25T03:03:07.200Z,89.00
2019-03-25T03:05:37.362Z,76.53
2019-03-25T03:08:07.001Z,77.70
2019-03-25T03:10:36.809Z,82.73
2019-03-25T03:13:06.637Z,83.00
2019-03-25T03:15:36.526Z,82.77
2019-03-25T03:18:06.330Z,74.60
2019-03-25T03:20:35.697Z,83.10
2019-03-25T03:23:05.239Z,82.97
2019-03-25T03:25:34.798Z,79.03
2019-03-25T03:28:04.573Z,75.40
2019-03-25T03:30:34.107Z,82.40
2019-03-25T03:33:03.714Z,76.67
2019-03-25T03:35:33.323Z,91.33
2019-03-25T03:38:02.812Z,81.43
2019-03-25T03:40:33.034Z,86.20
2019-03-25T03:43:02.574Z,80.20
2019-03-25T03:45:31.945Z,83.43
2019-03-25T03:48:01.701Z,89.07
2019-03-25T03:50:31.425Z,77.50
2019-03-25T03:53:00.899Z,80.23
2019-03-25T03:55:31.221Z,85.50
2019-03-25T03:58:01.054Z,84.33
2019-03-25T04:00:32.305Z,81.87
2019-03-25T04:03:02.350Z,77.70
2019-03-25T04:05:32.100Z,84.27
2019-03-25T04:08:01.660Z,86.70
2019-03-25T04:10:31.241Z,79.60
2019-03-25T04:13:00.793Z,77.37
2019-03-25T04:15:31.794Z,82.33
2019-03-25T04:18:02.134Z,81.23
2019-03-25T04:20:31.948Z,79.73
2019-03-25T04:23:01.405Z,85.93
2019-03-25T04:25:31.202Z,86.03
2019-03-25T04:28:00.735Z,82.80
2019-03-25T04:30:30.197Z,80.13
2019-03-25T04:32:59.730Z,82.13
2019-03-25T04:35:29.278Z,84.67
2019-03-25T04:37:58.802Z,88.30
2019-03-25T04:40:28.277Z,85.63
2019-03-25T04:42:57.838Z,81.73
2019-03-25T04:45:27.418Z,79.93
2019-03-25T04:47:57.174Z,76.67
2019-03-25T04:50:26.701Z,89.03
2019-03-25T04:52:56.245Z,85.43
2019-03-25T04:55:25.720Z,77.07
2019-03-25T04:57:55.257Z,75.87
2019-03-25T05:00:35.690Z,88.57
2019-03-25T05:03:05.322Z,76.90
2019-03-25T05:05:36.184Z,80.67
2019-03-25T05:08:06.284Z,79.37
2019-03-25T05:10:35.686Z,83.80
2019-03-25T05:13:05.223Z,85.93
2019-03-25T05:15:34.793Z,82.67
2019-03-25T05:18:04.347Z,80.73
2019-03-25T05:20:33.806Z,81.07
2019-03-25T05:23:03.201Z,80.67
2019-03-25T05:25:32.920Z,86.60
2019-03-25T05:28:02.917Z,79.53
2019-03-25T05:30:32.769Z,77.73
2019-03-25T05:33:02.611Z,80.27
2019-03-25T05:35:32.138Z,74.30
2019-03-25T05:38:01.833Z,75.07
2019-03-25T05:40:31.381Z,73.43
2019-03-25T05:43:00.905Z,78.37
2019-03-25T05:45:30.373Z,71.37
2019-03-25T05:47:59.843Z,64.57
2019-03-25T05:50:29.735Z,72.03
2019-03-25T05:52:59.198Z,60.20
2019-03-25T05:55:28.788Z,67.17
2019-03-25T05:57:58.313Z,58.47
2019-03-25T06:00:31.265Z,60.57
2019-03-25T06:03:01.122Z,50.50
2019-03-25T06:05:30.576Z,51.60
2019-03-25T06:07:59.957Z,50.30
2019-03-25T06:10:29.425Z,47.50
2019-03-25T06:12:59.185Z,48.23
2019-03-25T06:15:28.649Z,41.37
2019-03-25T06:17:58.553Z,45.30
2019-03-25T06:20:28.090Z,37.83
2019-03-25T06:22:57.537Z,41.10
2019-03-25T06:25:26.993Z,31.23
2019-03-25T06:27:56.692Z,30.90
2019-03-25T06:30:26.207Z,38.17
2019-03-25T06:32:55.700Z,33.77
2019-03-25T06:35:25.186Z,31.53
2019-03-25T06:37:54.760Z,33.80
2019-03-25T06:40:24.292Z,32.57
2019-03-25T06:42:53.740Z,29.83
2019-03-25T06:45:23.536Z,29.63
2019-03-25T06:47:53.055Z,28.27
2019-03-25T06:50:22.522Z,28.50
2019-03-25T06:52:51.996Z,24.03
2019-03-25T06:55:21.534Z,28.50
2019-03-25T06:57:51.110Z,25.37
2019-03-25T07:00:21.159Z,22.33
2019-03-25T07:02:50.954Z,20.90
2019-03-25T07:05:20.409Z,22.27
2019-03-25T07:07:49.949Z,20.93
2019-03-25T07:10:32.002Z,21.30
2019-03-25T07:13:02.129Z,22.33
2019-03-25T07:15:31.668Z,22.63
2019-03-25T07:18:01.211Z,21.97
2019-03-25T07:20:31.102Z,26.23
2019-03-25T07:23:01.426Z,24.43
2019-03-25T07:25:31.029Z,25.57
2019-03-25T07:28:00.401Z,21.10
2019-03-25T07:30:30.026Z,31.23
2019-03-25T07:32:59.945Z,26.17
2019-03-25T07:35:29.419Z,30.10
2019-03-25T07:37:58.967Z,23.13
2019-03-25T07:40:28.470Z,20.27
2019-03-25T07:42:57.942Z,18.07
2019-03-25T07:45:27.482Z,20.13
2019-03-25T07:47:57.386Z,20.40
2019-03-25T07:50:27.117Z,18.20
2019-03-25T07:52:56.639Z,19.67
2019-03-25T07:55:26.129Z,23.50
2019-03-25T07:57:55.877Z,19.57
2019-03-25T08:00:25.725Z,19.87
2019-03-25T08:02:55.184Z,20.17
2019-03-25T08:05:24.718Z,16.90
2019-03-25T08:07:54.276Z,21.27
2019-03-25T08:10:34.616Z,22.70
2019-03-25T08:13:04.270Z,24.73
2019-03-25T08:15:34.048Z,15.23
2019-03-25T08:18:04.023Z,14.50
2019-03-25T08:20:33.657Z,19.67
2019-03-25T08:23:03.260Z,17.43
2019-03-25T08:25:32.806Z,19.87
2019-03-25T08:28:02.364Z,13.37
2019-03-25T08:30:32.842Z,14.73
2019-03-25T08:33:02.381Z,20.53
2019-03-25T08:35:31.841Z,16.27
2019-03-25T08:38:01.389Z,14.73
2019-03-25T08:40:30.767Z,14.57
2019-03-25T08:43:00.325Z,14.00
2019-03-25T08:45:30.581Z,21.57
2019-03-25T08:48:00.451Z,11.97
2019-03-25T08:50:30.018Z,12.83
2019-03-25T08:52:59.593Z,13.30
2019-03-25T08:55:29.138Z,15.33
2019-03-25T08:57:58.674Z,15.70
2019-03-25T09:00:28.132Z,12.57
2019-03-25T09:02:57.689Z,13.50
2019-03-25T09:05:27.594Z,18.63
2019-03-25T09:07:57.169Z,14.67
2019-03-25T09:10:26.694Z,19.43
2019-03-25T09:12:56.581Z,14.10
2019-03-25T09:15:25.946Z,11.63
2019-03-25T09:17:55.489Z,11.53
2019-03-25T09:20:25.093Z,14.97
2019-03-25T09:22:54.628Z,9.00
2019-03-25T09:25:24.788Z,11.53
2019-03-25T09:27:54.366Z,9.97
2019-03-25T09:31:15.670Z,15.50
2019-03-25T09:33:46.202Z,13.33
2019-03-25T09:36:17.799Z,9.73
2019-03-25T09:38:47.365Z,14.77
2019-03-25T09:41:16.920Z,12.60
2019-03-25T09:43:46.732Z,9.37
2019-03-25T09:46:16.576Z,9.80
2019-03-25T09:48:46.343Z,10.43
2019-03-25T09:51:15.895Z,6.73
2019-03-25T09:53:45.458Z,9.13
2019-03-25T09:56:14.903Z,8.40
2019-03-25T09:58:44.361Z,9.40
2019-03-25T10:01:13.886Z,6.77
2019-03-25T10:03:43.898Z,9.47
2019-03-25T10:06:13.421Z,7.70
2019-03-25T10:08:42.994Z,10.70
2019-03-25T10:11:12.522Z,8.63
2019-03-25T10:13:42.074Z,8.77
2019-03-25T10:16:11.621Z,9.10
2019-03-25T10:18:41.167Z,9.13
2019-03-25T10:21:10.648Z,8.30
2019-03-25T10:23:40.221Z,5.53
2019-03-25T10:26:10.011Z,5.40
2019-03-25T10:28:48.646Z,5.97
2019-03-25T10:31:10.898Z,8.07
2019-03-25T10:33:40.465Z,6.37
2019-03-25T10:36:09.993Z,10.53
2019-03-25T10:38:39.531Z,7.63
2019-03-25T10:41:08.977Z,3.53
2019-03-25T10:43:38.630Z,4.77
2019-03-25T10:46:08.070Z,6.00
2019-03-25T10:48:37.838Z,6.30
2019-03-25T10:51:07.368Z,8.10
2019-03-25T10:53:36.930Z,9.27
2019-03-25T10:56:06.483Z,8.93
2019-03-25T10:58:36.721Z,4.40
2019-03-25T11:01:09.451Z,4.73
2019-03-25T11:03:38.881Z,4.57
2019-03-25T11:06:08.404Z,8.47
2019-03-25T11:08:37.949Z,12.20
2019-03-25T11:11:07.800Z,3.63
2019-03-25T11:13:37.347Z,4.77
2019-03-25T11:16:06.874Z,5.37
2019-03-25T11:18:36.345Z,5.63
2019-03-25T11:21:05.868Z,3.57
2019-03-25T11:23:35.257Z,2.40
2019-03-25T11:26:04.775Z,4.00
2019-03-25T11:28:34.351Z,3.80
2019-03-25T11:31:03.891Z,1.83
2019-03-25T11:33:33.434Z,3.50
2019-03-25T11:36:03.006Z,2.37
2019-03-25T11:38:32.809Z,3.53
2019-03-25T11:41:02.685Z,4.70
2019-03-25T11:43:32.153Z,2.77
2019-03-25T11:46:01.673Z,8.93
2019-03-25T11:48:31.409Z,3.13
2019-03-25T11:51:01.214Z,6.13
2019-03-25T11:53:30.669Z,2.17
2019-03-25T11:56:00.409Z,3.70
2019-03-25T11:58:29.952Z,3.40
2019-03-25T12:00:59.502Z,3.57
2019-03-25T12:03:29.059Z,3.00
2019-03-25T12:05:58.605Z,5.57
2019-03-25T12:08:28.611Z,6.37
2019-03-25T12:10:58.133Z,2.63
2019-03-25T12:13:27.820Z,3.93
2019-03-25T12:15:57.278Z,3.03
2019-03-25T12:18:26.825Z,5.63
2019-03-25T12:20:56.274Z,6.60
2019-03-25T12:23:26.678Z,3.43
2019-03-25T12:25:56.445Z,5.37
2019-03-25T12:28:25.892Z,4.60
2019-03-25T12:30:55.742Z,2.93
2019-03-25T12:33:25.303Z,3.47
2019-03-25T12:35:54.865Z,9.77
2019-03-25T12:38:24.446Z,3.20
2019-03-25T12:40:54.088Z,3.30
2019-03-25T12:43:23.643Z,5.33
2019-03-25T12:45:53.671Z,4.87
2019-03-25T12:48:23.209Z,2.73
2019-03-25T12:50:52.662Z,3.10
2019-03-25T12:53:22.500Z,3.83
2019-03-25T12:55:52.027Z,3.37
2019-03-25T12:58:22.317Z,5.67
2019-03-25T13:00:52.242Z,4.83
2019-03-25T13:03:21.694Z,5.03
2019-03-25T13:05:51.237Z,6.13
2019-03-25T13:08:20.712Z,5.63
2019-03-25T13:10:50.674Z,4.37
2019-03-25T13:13:20.167Z,6.67
2019-03-25T13:15:49.794Z,4.77
2019-03-25T13:18:19.270Z,4.43
2019-03-25T13:20:48.632Z,13.33
2019-03-25T13:23:18.078Z,7.20
2019-03-25T13:25:47.457Z,4.67
2019-03-25T13:28:17.250Z,4.23
2019-03-25T13:30:47.080Z,5.97
2019-03-25T13:33:16.722Z,5.43
2019-03-25T13:35:46.462Z,4.27
2019-03-25T13:38:15.918Z,3.17
2019-03-25T13:40:45.466Z,7.20
2019-03-25T13:43:14.910Z,8.20
2019-03-25T13:45:44.803Z,2.67
2019-03-25T13:48:14.263Z,4.77
2019-03-25T13:50:43.666Z,7.77
2019-03-25T13:53:13.453Z,3.30
2019-03-25T13:55:42.846Z,4.90
2019-03-25T13:58:12.525Z,3.83
2019-03-25T14:00:42.489Z,4.53
2019-03-25T14:03:12.413Z,2.23
2019-03-25T14:05:42.265Z,2.27
2019-03-25T14:08:12.124Z,8.00
2019-03-25T14:10:41.657Z,3.03
2019-03-25T14:13:11.066Z,2.60
2019-03-25T14:15:40.549Z,3.10
2019-03-25T14:18:10.105Z,4.87
2019-03-25T14:20:39.586Z,3.23
2019-03-25T14:23:09.122Z,4.47
2019-03-25T14:25:38.577Z,3.20
2019-03-25T14:28:08.115Z,3.20
2019-03-25T14:30:37.573Z,4.17
2019-03-25T14:33:07.371Z,3.37
2019-03-25T14:35:36.849Z,2.80
2019-03-25T14:38:06.372Z,3.63
2019-03-25T14:40:35.752Z,3.77
2019-03-25T14:43:05.893Z,3.87
2019-03-25T14:45:35.373Z,4.47
2019-03-25T14:48:04.897Z,4.97
2019-03-25T14:50:34.538Z,3.63
2019-03-25T14:53:04.103Z,5.40
2019-03-25T14:55:33.679Z,4.60
2019-03-25T14:58:03.137Z,4.07
2019-03-25T15:00:32.613Z,3.67
2019-03-25T15:03:02.057Z,3.53
2019-03-25T15:05:31.581Z,3.93
2019-03-25T15:08:00.962Z,2.80
2019-03-25T15:10:30.953Z,3.10
2019-03-25T15:13:00.647Z,2.80
2019-03-25T15:15:30.172Z,3.67
2019-03-25T15:17:59.551Z,2.53
2019-03-25T15:20:29.137Z,2.30
2019-03-25T15:22:58.600Z,3.43
2019-03-25T15:25:28.382Z,2.53
2019-03-25T15:27:58.144Z,3.17
2019-03-25T15:30:35.839Z,6.07
2019-03-25T15:33:00.250Z,4.83
2019-03-25T15:35:30.009Z,3.50
2019-03-25T15:37:59.801Z,6.17
2019-03-25T15:40:29.421Z,2.47
2019-03-25T15:42:59.049Z,2.80
2019-03-25T15:45:28.421Z,2.77
2019-03-25T15:47:58.235Z,2.47
2019-03-25T15:50:27.701Z,2.20
2019-03-25T15:52:57.445Z,3.47
2019-03-25T15:55:27.238Z,5.10
2019-03-25T15:57:57.061Z,2.27
2019-03-25T16:00:26.889Z,3.20
2019-03-25T16:02:56.396Z,4.77
2019-03-25T16:05:25.987Z,5.33
2019-03-25T16:07:55.445Z,3.80
2019-03-25T16:10:24.960Z,3.93
2019-03-25T16:12:54.508Z,8.27
2019-03-25T16:15:40.608Z,3.33
2019-03-25T16:18:12.266Z,5.83
2019-03-25T16:20:42.199Z,4.33
2019-03-25T16:23:11.715Z,4.70
2019-03-25T16:25:41.523Z,5.97
2019-03-25T16:28:11.126Z,2.80
2019-03-25T16:30:40.860Z,2.70
2019-03-25T16:33:10.707Z,2.27
2019-03-25T16:35:40.637Z,2.83
2019-03-25T16:38:10.329Z,2.03
2019-03-25T16:40:39.936Z,2.27
2019-03-25T16:43:09.517Z,2.37
2019-03-25T16:45:39.058Z,2.07
2019-03-25T16:48:08.650Z,1.83
2019-03-25T16:50:38.094Z,2.37
2019-03-25T16:53:07.642Z,1.87
2019-03-25T16:55:37.096Z,4.70
2019-03-25T16:58:06.650Z,4.33
2019-03-25T17:00:36.102Z,4.87
2019-03-25T17:03:05.637Z,2.93
2019-03-25T17:05:35.149Z,2.43
2019-03-25T17:08:05.603Z,1.77
2019-03-25T17:10:35.126Z,2.60
2019-03-25T17:13:04.579Z,3.07
2019-03-25T17:15:34.025Z,3.23
2019-03-25T17:18:03.557Z,2.63
2019-03-25T17:20:33.162Z,3.57
2019-03-25T17:23:02.917Z,2.50
2019-03-25T17:25:32.293Z,2.07
2019-03-25T17:28:01.801Z,2.67
2019-03-25T17:30:31.364Z,1.73
2019-03-25T17:33:00.946Z,3.60
2019-03-25T17:35:30.308Z,2.87
2019-03-25T17:38:00.346Z,2.27
2019-03-25T17:40:29.927Z,2.40
2019-03-25T17:42:59.890Z,2.63
2019-03-25T17:45:29.328Z,3.33
2019-03-25T17:47:58.870Z,2.37
2019-03-25T17:50:28.395Z,3.30
2019-03-25T17:52:58.089Z,3.80
2019-03-25T17:55:28.422Z,2.53
2019-03-25T17:57:58.066Z,2.10
2019-03-25T18:01:18.568Z,4.80
2019-03-25T18:03:48.215Z,2.87
2019-03-25T18:06:17.674Z,3.17
2019-03-25T18:08:47.541Z,2.63
2019-03-25T18:11:17.081Z,3.23
2019-03-25T18:13:46.906Z,2.87
2019-03-25T18:16:16.497Z,2.87
2019-03-25T18:18:46.193Z,6.93
2019-03-25T18:21:15.579Z,2.80
2019-03-25T18:23:45.102Z,4.80
2019-03-25T18:26:14.536Z,3.00
2019-03-25T18:28:44.002Z,2.87
2019-03-25T18:31:13.602Z,4.20
2019-03-25T18:33:43.103Z,2.50
2019-03-25T18:36:12.638Z,2.40
2019-03-25T18:38:42.165Z,3.00
2019-03-25T18:41:11.915Z,4.07
2019-03-25T18:43:41.445Z,3.07
2019-03-25T18:46:10.981Z,3.80
2019-03-25T18:48:41.043Z,3.37
2019-03-25T18:51:10.576Z,3.57
2019-03-25T18:53:40.118Z,4.33
2019-03-25T18:56:09.975Z,4.57
2019-03-25T18:58:39.422Z,7.43
2019-03-25T19:01:08.886Z,8.27
2019-03-25T19:03:39.175Z,9.57
2019-03-25T19:06:08.723Z,7.40
2019-03-25T19:08:38.891Z,4.97
2019-03-25T19:11:08.489Z,12.67
2019-03-25T19:13:38.305Z,13.00
2019-03-25T19:16:07.873Z,14.90
2019-03-25T19:18:37.438Z,20.30
2019-03-25T19:21:06.892Z,14.93
2019-03-25T19:23:36.393Z,6.20
2019-03-25T19:26:05.975Z,5.67
2019-03-25T19:28:35.901Z,4.13
2019-03-25T19:31:05.549Z,5.83
2019-03-25T19:33:35.308Z,6.37
2019-03-25T19:36:05.033Z,4.83
2019-03-25T19:38:34.457Z,5.63
2019-03-25T19:41:03.915Z,4.90
2019-03-25T19:43:33.371Z,5.00
2019-03-25T19:46:02.870Z,3.13
2019-03-25T19:48:32.640Z,3.50
2019-03-25T19:51:02.309Z,3.17
2019-03-25T19:53:31.898Z,3.33
2019-03-25T19:56:02.151Z,2.73
2019-03-25T19:58:31.714Z,5.40
2019-03-25T20:01:01.302Z,5.87
2019-03-25T20:03:32.929Z,4.10
2019-03-25T20:06:02.069Z,2.57
2019-03-25T20:08:31.602Z,2.40
2019-03-25T20:11:01.281Z,2.50
2019-03-25T20:13:30.728Z,3.67
2019-03-25T20:16:00.761Z,2.23
2019-03-25T20:18:30.649Z,2.10
2019-03-25T20:21:00.115Z,2.20
2019-03-25T20:23:29.570Z,1.90
2019-03-25T20:25:59.161Z,2.20
2019-03-25T20:28:28.998Z,2.43
2019-03-25T20:30:58.481Z,1.63
2019-03-25T20:33:28.393Z,2.67
2019-03-25T20:35:58.007Z,4.30
2019-03-25T20:38:27.593Z,3.07
2019-03-25T20:40:57.200Z,2.53
2019-03-25T20:43:27.304Z,2.77
2019-03-25T20:45:57.333Z,3.37
2019-03-25T20:48:26.969Z,8.83
2019-03-25T20:50:56.463Z,6.57
2019-03-25T20:53:26.028Z,4.23
2019-03-25T20:55:55.642Z,3.23
2019-03-25T20:58:25.125Z,4.37
2019-03-25T21:00:56.597Z,3.83
2019-03-25T21:03:26.354Z,4.17
2019-03-25T21:05:55.961Z,3.37
2019-03-25T21:08:25.904Z,3.87
2019-03-25T21:10:55.493Z,3.90
2019-03-25T21:13:25.000Z,4.53
2019-03-25T21:15:54.597Z,4.77
2019-03-25T21:18:24.470Z,4.23
2019-03-25T21:20:53.936Z,4.20
2019-03-25T21:23:23.406Z,5.13
2019-03-25T21:25:53.262Z,4.73
2019-03-25T21:28:23.030Z,5.30
2019-03-25T21:30:52.982Z,4.87
2019-03-25T21:33:22.696Z,4.80
2019-03-25T21:35:52.400Z,5.63
2019-03-25T21:38:22.586Z,5.20
2019-03-25T21:40:52.285Z,5.53
2019-03-25T21:43:21.733Z,5.33
2019-03-25T21:45:51.266Z,5.40
2019-03-25T21:48:20.711Z,5.43
2019-03-25T21:50:50.188Z,5.70
2019-03-25T21:53:19.640Z,4.30
2019-03-25T21:55:49.074Z,4.50
2019-03-25T21:58:18.526Z,4.50
2019-03-25T22:00:48.332Z,4.93
2019-03-25T22:03:17.794Z,4.97
2019-03-25T22:05:47.273Z,5.23
2019-03-25T22:08:17.022Z,5.83
2019-03-25T22:10:46.414Z,4.67
2019-03-25T22:13:15.814Z,4.73
2019-03-25T22:15:45.583Z,5.13
2019-03-25T22:18:15.345Z,5.53
2019-03-25T22:20:44.739Z,4.97
2019-03-25T22:23:14.171Z,4.50
2019-03-25T22:25:43.764Z,4.50
2019-03-25T22:28:13.337Z,4.60
2019-03-25T22:30:42.781Z,3.83
2019-03-25T22:33:25.233Z,4.33
2019-03-25T22:35:45.262Z,4.47
2019-03-25T22:38:14.696Z,4.10
2019-03-25T22:40:44.162Z,4.53
2019-03-25T22:43:13.868Z,4.60
2019-03-25T22:45:43.781Z,4.37
2019-03-25T22:48:13.669Z,4.50
2019-03-25T22:50:43.196Z,4.37
2019-03-25T22:53:12.937Z,4.17
2019-03-25T22:55:42.732Z,4.40
2019-03-25T22:58:12.250Z,4.53
2019-03-25T23:00:44.786Z,5.67
2019-03-25T23:03:16.732Z,5.00
2019-03-25T23:05:46.213Z,4.57
2019-03-25T23:08:15.744Z,4.40
2019-03-25T23:10:47.162Z,4.73
2019-03-25T23:13:16.781Z,5.00
2019-03-25T23:15:46.649Z,5.27
2019-03-25T23:18:16.090Z,4.67
2019-03-25T23:20:45.686Z,6.03
2019-03-25T23:23:15.127Z,6.30
2019-03-25T23:25:44.666Z,7.27
2019-03-25T23:28:14.105Z,7.60
2019-03-25T23:30:44.059Z,8.57
2019-03-25T23:33:13.594Z,6.70
2019-03-25T23:35:43.140Z,6.20
2019-03-25T23:38:12.703Z,5.73
2019-03-25T23:40:42.185Z,5.67
2019-03-25T23:43:11.542Z,5.20
2019-03-25T23:45:41.087Z,5.83
2019-03-25T23:48:10.533Z,5.60
2019-03-25T23:50:40.073Z,5.97
2019-03-25T23:53:09.714Z,6.03
2019-03-25T23:55:39.168Z,10.83
2019-03-25T23:58:08.822Z,6.80
